Espaço - Ciências - Fenômenos Naturais
Meteógrafos Informações Meteorológicas em tempo real

Aeroporto Castro Pinto

Histórico do Tempo
Temperatura atual: 23 graus 73 F    Umidade relativa: 83 %
Velocidade do vento: 05 nós 9 Km/h    Direção: 210 graus SSW
Ajuste do altímetro ..: 1012 HPA
Visibilidade: Ótima    Tempo presente: Céu Limpo

Observação

Data Hora BRTTempo°CUmidadePressãoVentoVisib.
20/01 - 04:55   Céu Limpo 23° 83% 1012 Sul-sudoeste/9 km/h OK
20/01 - 03:55   Céu Limpo 23° 83% 1012 Oeste/7 km/h OK
20/01 - 02:55   Não Disponível 23° 88% 1013 Sudoeste/5 km/h OK
20/01 - 01:55   Não Disponível 24° 78% 1013 Sul-sudoeste/7 km/h OK
20/01 - 00:55   Não Disponível 24° 78% 1014 Sul/7 km/h OK
19/01 - 23:55   Céu Limpo 24° 83% 1014 Sul-sudeste/9 km/h OK
19/01 - 22:55   Não Disponível 25° 78% 1014 Sul-sudeste/10 km/h OK
19/01 - 21:55   Poucas nuvens esparsas 26° 74% 1013 Sudeste/12 km/h OK
19/01 - 20:55   Não Disponível 26° 74% 1013 Sudeste/18 km/h OK
19/01 - 19:55   Poucas nuvens esparsas 27° 69% 1012 Sudeste/23 km/h OK
19/01 - 18:55   Poucas nuvens esparsas 29° 58% 1011 Este-sudeste/25 km/h OK
19/01 - 17:55   Poucas nuvens esparsas 29° 58% 1011 Este-sudeste/25 km/h OK
19/01 - 16:55   Parcialmente Nublado 30° 55% 1011 Este-sudeste/27 km/h OK
19/01 - 15:55   Parcialmente Nublado 31° 52% 1011 Sudeste/28 km/h 9999
19/01 - 14:55   Parcialmente Nublado 31° 55% 1012 Este-sudeste/25 km/h 9999
19/01 - 13:55   Parcialmente Nublado 30° 58% 1012 Sudeste/23 km/h OK
19/01 - 12:55   Parcialmente Nublado 30° 58% 1013 Sudeste/23 km/h OK
19/01 - 11:55   Parcialmente Nublado 29° 62% 1013 Sudeste/21 km/h OK
19/01 - 10:55   Parcialmente Nublado 29° 62% 1013 Sudeste/21 km/h OK
19/01 - 09:55   Poucas nuvens esparsas 28° 65% 1013 Sudeste/19 km/h OK
19/01 - 08:55   Não Disponível 26° 78% 1013 Sul/9 km/h OK
19/01 - 07:55   Não Disponível 23° 88% 1012 Sul-sudoeste/9 km/h OK
19/01 - 06:55   Não Disponível 23° 88% 1012 Sul-sudoeste/10 km/h OK
19/01 - 05:55   Céu Limpo 23° 88% 1011 Sul/7 km/h OK


Apolo11.com - Todos os direitos reservados - 2000 - 2017
Política de Privacidade   |     Termo de Uso e Licenciamento   |  -   Entre em Contato

"Quando se procura muito o jeito de se fazer temer, sempre se encontra primeiro o de se fazer odiar" - Montesquieu